Murska Sobota, Slovenia
Current Conditions -  °F | °C
As of 10:00 AM on Wednesday 26 Nov 2014 (Local Time) from LJMB Reporting Station
Overcast Overcast  
Wind Chill: 37°   Ceiling: 4500
Heat Index: 37°   Visibility: 4mi
Dew Point: 34°   Wind: 3mph
Humidity: 87%   Direction: 100°E
Pressure: 30.24"   Gusts: NA
Location:  46.66°N, 16.14°E
Report Text: LJMB 260900Z 10003KT 070V140 6000 SCT010 OVC045 03/01 Q1024
Loading
Personal Weather Stations






























Interactive Weather Map New forecast layout! Learn more

10-Day Weather Forecast

Advertisements
Track Severe Weather on mobile